Terminal Aerodrome Forecast
Issued by NWS

Home | Current Version | Previous Version | Graphics & Text | Print | Product List | Glossary Off
Versions: 1 2 3 4 5 6 7 8 9 10 11 12 13 14

000
FTUS43 KICT 031720
TAFRSL
TAF
KRSL 031720Z 0318/0418 17018G25KT P6SM SKC
     FM031900 18020G28KT P6SM SKC
     FM040100 18015G22KT P6SM SCT200
     FM041500 19018G25KT P6SM SCT200=

USA.gov is the U.S. government's official web portal to all federal, state and local government web resources and services.